Time;durP1;ratioP1;P1;durP2;ratioP2;P2;SDS_P1;SDS_P2;PMS_P1;PMS_P2;Temp;Humidity;BMP_temperature;BMP_pressure;BME280_temperature;BME280_humidity;BME280_pressure;Samples;Min_cycle;Max_cycle;Signal;HPM_P1;HPM_P2
2022/09/07 00:00:59;;;;;;;2.10;0.63;;;20.80;99.90;;;;;;4989463;28;20149;-71
2022/09/07 00:03:25;;;;;;;0.00;0.00;;;20.70;99.90;;;;;;5007702;28;20124;-71
2022/09/07 00:05:50;;;;;;;4.40;2.15;;;20.60;99.90;;;;;;5009516;28;20552;-71
2022/09/07 00:08:20;;;;;;;1.20;0.73;;;20.60;99.90;;;;;;4998506;28;20041;-71
2022/09/07 00:10:52;;;;;;;0.22;0.22;;;20.60;99.90;;;;;;5013501;28;20057;-72
2022/09/07 00:13:18;;;;;;;0.80;0.40;;;20.60;99.90;;;;;;5013580;28;20405;-71
2022/09/07 00:15:44;;;;;;;0.00;0.00;;;20.60;99.90;;;;;;5013294;28;20056;-72
2022/09/07 00:18:09;;;;;;;0.10;0.10;;;20.60;99.90;;;;;;5005125;28;20046;-71
2022/09/07 00:20:35;;;;;;;0.50;0.50;;;20.50;99.90;;;;;;4993425;28;20402;-71
2022/09/07 00:23:00;;;;;;;0.20;0.20;;;20.40;99.90;;;;;;4993785;28;20042;-71
2022/09/07 00:25:26;;;;;;;0.38;0.30;;;20.40;99.90;;;;;;4993101;28;20883;-71
2022/09/07 00:27:51;;;;;;;0.10;0.10;;;20.30;99.90;;;;;;5007927;28;20131;-71
2022/09/07 00:30:17;;;;;;;0.40;0.35;;;20.30;99.90;;;;;;5007917;28;20057;-71
2022/09/07 00:32:42;;;;;;;1.10;1.00;;;20.30;99.90;;;;;;5004927;28;20042;-71
2022/09/07 00:35:08;;;;;;;0.13;0.13;;;20.30;99.90;;;;;;4991312;28;20054;-70
2022/09/07 00:37:34;;;;;;;1.00;0.75;;;20.20;99.90;;;;;;4993623;28;20118;-70
2022/09/07 00:39:59;;;;;;;0.17;0.17;;;20.20;99.90;;;;;;4999762;28;20093;-70
2022/09/07 00:42:25;;;;;;;0.00;0.00;;;20.20;99.90;;;;;;5010371;28;20059;-70
2022/09/07 00:45:09;;;;;;;0.30;0.20;;;20.20;99.90;;;;;;5012851;28;20041;-70
2022/09/07 00:48:00;;;;;;;0.38;0.38;;;20.20;99.90;;;;;;5009900;28;20045;-70
2022/09/07 00:50:38;;;;;;;0.20;0.20;;;20.30;99.90;;;;;;5010558;28;20054;-70
2022/09/07 00:53:19;;;;;;;0.28;0.28;;;20.30;99.90;;;;;;5012263;28;20049;-71
2022/09/07 00:55:48;;;;;;;0.00;0.00;;;20.30;99.90;;;;;;5011235;28;20073;-71
2022/09/07 00:58:15;;;;;;;0.20;0.20;;;20.10;99.90;;;;;;4993952;28;20070;-71
2022/09/07 01:00:42;;;;;;;0.10;0.10;;;20.10;99.90;;;;;;4993032;28;20054;-71
2022/09/07 01:03:09;;;;;;;0.00;0.00;;;20.10;99.90;;;;;;4989439;28;20050;-71
2022/09/07 01:06:06;;;;;;;0.00;0.00;;;20.00;99.90;;;;;;4990965;28;20053;-71
2022/09/07 01:08:31;;;;;;;0.00;0.00;;;19.90;99.90;;;;;;4990779;28;20178;-71
2022/09/07 01:10:59;;;;;;;0.00;0.00;;;19.80;99.90;;;;;;4990781;28;20038;-70
2022/09/07 01:13:25;;;;;;;0.00;0.00;;;19.80;99.90;;;;;;4991758;28;20410;-70
2022/09/07 01:16:11;;;;;;;0.00;0.00;;;19.60;99.90;;;;;;4991497;28;20047;-70
2022/09/07 01:19:17;;;;;;;0.00;0.00;;;19.70;99.90;;;;;;4988446;28;20081;-70
2022/09/07 01:22:12;;;;;;;0.00;0.00;;;19.70;99.90;;;;;;4993111;28;20074;-70
2022/09/07 01:25:02;;;;;;;0.00;0.00;;;19.60;99.90;;;;;;4991318;28;20137;-69
2022/09/07 01:28:02;;;;;;;6.50;0.55;;;19.50;99.90;;;;;;4992650;28;20525;-69
2022/09/07 01:30:29;;;;;;;0.10;0.10;;;19.50;99.90;;;;;;4993022;28;20042;-70
2022/09/07 01:33:04;;;;;;;0.05;0.05;;;19.50;99.90;;;;;;5005866;28;20424;-70
2022/09/07 01:35:36;;;;;;;0.15;0.15;;;19.40;99.90;;;;;;5000645;28;20054;-70
2022/09/07 01:38:16;;;;;;;0.00;0.00;;;19.40;99.90;;;;;;4990176;28;20050;-70
2022/09/07 01:40:56;;;;;;;0.43;0.43;;;19.30;99.90;;;;;;4992393;28;20038;-70
2022/09/07 01:43:44;;;;;;;0.10;0.10;;;19.30;99.90;;;;;;4990979;28;20050;-70
2022/09/07 01:46:23;;;;;;;0.00;0.00;;;19.30;99.90;;;;;;4989034;28;20379;-70
2022/09/07 01:48:53;;;;;;;0.00;0.00;;;19.20;99.90;;;;;;4992419;28;20047;-70
2022/09/07 01:51:22;;;;;;;0.00;0.00;;;19.10;99.90;;;;;;4990860;28;20141;-69
2022/09/07 01:53:50;;;;;;;0.00;0.00;;;19.20;99.90;;;;;;4991812;28;20072;-70
2022/09/07 01:56:39;;;;;;;0.00;0.00;;;19.20;99.90;;;;;;4992052;28;20046;-70
2022/09/07 01:59:23;;;;;;;0.00;0.00;;;19.10;99.90;;;;;;4990918;28;20049;-70
2022/09/07 02:01:57;;;;;;;16.35;0.88;;;19.00;99.90;;;;;;4990724;28;20056;-70
2022/09/07 02:04:30;;;;;;;0.90;0.30;;;18.90;99.90;;;;;;4991125;28;20042;-70
2022/09/07 02:07:05;;;;;;;0.20;0.20;;;18.80;99.90;;;;;;4990178;28;20050;-70
2022/09/07 02:09:41;;;;;;;0.00;0.00;;;18.60;99.90;;;;;;4992436;28;20053;-70
2022/09/07 02:12:33;;;;;;;0.28;0.28;;;18.80;99.90;;;;;;4990253;28;20056;-70
2022/09/07 02:15:04;;;;;;;0.00;0.00;;;18.90;99.90;;;;;;4989629;28;20054;-70
2022/09/07 02:17:40;;;;;;;0.20;0.20;;;18.90;99.90;;;;;;4997294;28;20049;-70
2022/09/07 02:20:15;;;;;;;1.45;1.13;;;18.90;99.90;;;;;;5010392;28;20081;-70
2022/09/07 02:22:45;;;;;;;3.70;1.55;;;18.90;99.90;;;;;;5010040;28;20062;-70
2022/09/07 02:25:17;;;;;;;0.35;0.30;;;18.90;99.90;;;;;;5000602;28;20121;-70
2022/09/07 02:27:51;;;;;;;1.30;0.63;;;18.90;99.90;;;;;;4991000;28;20042;-71
2022/09/07 02:30:17;;;;;;;0.00;0.00;;;19.00;99.90;;;;;;5003929;28;20054;-70
2022/09/07 02:32:43;;;;;;;0.00;0.00;;;19.00;99.90;;;;;;5007623;28;20045;-71
2022/09/07 02:35:08;;;;;;;0.00;0.00;;;19.00;99.90;;;;;;5008815;28;20057;-71
2022/09/07 02:37:37;;;;;;;0.38;0.28;;;19.00;99.90;;;;;;5010898;28;20081;-71
2022/09/07 02:40:03;;;;;;;0.00;0.00;;;19.00;99.90;;;;;;5007078;28;20049;-70
2022/09/07 02:42:32;;;;;;;0.03;0.03;;;19.00;99.90;;;;;;5010309;28;20085;-71
2022/09/07 02:44:58;;;;;;;0.03;0.03;;;19.00;99.90;;;;;;5010789;28;20048;-71
2022/09/07 02:47:38;;;;;;;0.45;0.45;;;18.90;99.90;;;;;;5009335;28;20046;-71
2022/09/07 02:50:19;;;;;;;0.30;0.30;;;19.00;99.90;;;;;;5007844;28;20508;-71
2022/09/07 02:53:22;;;;;;;0.35;0.35;;;19.00;99.90;;;;;;5011013;28;20038;-71
2022/09/07 02:56:09;;;;;;;0.00;0.00;;;19.00;99.90;;;;;;5006557;28;20049;-71
2022/09/07 02:58:55;;;;;;;0.00;0.00;;;19.00;99.90;;;;;;5009569;28;20069;-72
2022/09/07 03:01:53;;;;;;;0.20;0.20;;;18.90;99.90;;;;;;5011045;28;20081;-72
2022/09/07 03:04:33;;;;;;;0.00;0.00;;;18.90;99.90;;;;;;4992740;28;20082;-71
2022/09/07 03:07:11;;;;;;;0.00;0.00;;;19.00;99.90;;;;;;4989542;28;20058;-71
2022/09/07 03:09:40;;;;;;;0.05;0.05;;;19.00;99.90;;;;;;4990392;28;20089;-71
2022/09/07 03:12:07;;;;;;;0.00;0.00;;;19.00;99.90;;;;;;4989107;28;20054;-71
2022/09/07 03:14:34;;;;;;;0.15;0.15;;;19.00;99.90;;;;;;4991025;28;20193;-72
2022/09/07 03:17:01;;;;;;;1.55;0.38;;;19.00;99.90;;;;;;4988493;28;20412;-72
2022/09/07 03:19:27;;;;;;;3.53;0.98;;;19.00;99.90;;;;;;4991148;28;20061;-72
2022/09/07 03:21:52;;;;;;;0.00;0.00;;;19.00;99.90;;;;;;4989852;28;20038;-72
2022/09/07 03:24:18;;;;;;;0.00;0.00;;;19.00;99.90;;;;;;4989729;28;20132;-72
2022/09/07 03:26:47;;;;;;;0.00;0.00;;;19.00;99.90;;;;;;4994409;28;20107;-72
2022/09/07 03:29:14;;;;;;;0.00;0.00;;;19.00;99.90;;;;;;5010002;28;20092;-72
2022/09/07 03:31:39;;;;;;;0.00;0.00;;;19.00;99.90;;;;;;4998681;28;20037;-72
2022/09/07 03:34:06;;;;;;;0.00;0.00;;;19.00;99.90;;;;;;4989244;28;20450;-72
2022/09/07 03:36:32;;;;;;;1.60;0.50;;;18.90;99.90;;;;;;4989388;28;20054;-72
2022/09/07 03:38:58;;;;;;;0.00;0.00;;;18.90;99.90;;;;;;5007613;28;20084;-73
2022/09/07 03:41:25;;;;;;;1.15;1.05;;;18.90;99.90;;;;;;5014520;28;20040;-73
2022/09/07 03:43:51;;;;;;;0.08;0.08;;;18.90;99.90;;;;;;5001105;28;20046;-73
2022/09/07 03:46:18;;;;;;;0.10;0.10;;;18.90;99.90;;;;;;4993885;28;20042;-73
2022/09/07 03:48:45;;;;;;;0.63;0.60;;;18.80;99.90;;;;;;4995540;28;20446;-73
2022/09/07 03:51:12;;;;;;;0.00;0.00;;;18.90;99.90;;;;;;4994176;28;20058;-73
2022/09/07 03:53:40;;;;;;;0.10;0.10;;;18.80;99.90;;;;;;4992571;28;20046;-73
2022/09/07 03:56:12;;;;;;;0.45;0.43;;;18.90;99.90;;;;;;4994154;28;20054;-73
2022/09/07 03:58:38;;;;;;;0.00;0.00;;;19.00;99.90;;;;;;4993936;28;20092;-73
2022/09/07 04:01:09;;;;;;;0.00;0.00;;;18.90;99.90;;;;;;4993964;28;20309;-73
2022/09/07 04:03:35;;;;;;;0.35;0.35;;;19.00;99.90;;;;;;4998238;28;20057;-72
2022/09/07 04:06:02;;;;;;;0.00;0.00;;;19.00;99.90;;;;;;5011399;28;20431;-73
2022/09/07 04:08:29;;;;;;;0.00;0.00;;;18.90;99.90;;;;;;4995340;28;20061;-72
2022/09/07 04:10:56;;;;;;;0.10;0.10;;;18.90;99.90;;;;;;4994186;28;20120;-72
2022/09/07 04:13:22;;;;;;;0.00;0.00;;;18.90;99.90;;;;;;4992363;28;20058;-72
2022/09/07 04:15:48;;;;;;;0.00;0.00;;;18.90;99.90;;;;;;4993140;28;20050;-72
2022/09/07 04:18:14;;;;;;;0.00;0.00;;;18.90;99.90;;;;;;4993904;28;20061;-72
2022/09/07 04:20:39;;;;;;;0.00;0.00;;;18.90;99.90;;;;;;4991821;28;20046;-72
2022/09/07 04:23:05;;;;;;;0.13;0.13;;;18.90;99.90;;;;;;5003943;28;20069;-73
2022/09/07 04:25:30;;;;;;;7.97;3.13;;;18.90;99.90;;;;;;5012491;28;20082;-73
2022/09/07 04:27:57;;;;;;;0.00;0.00;;;18.90;99.90;;;;;;5011851;28;20057;-73
2022/09/07 04:30:22;;;;;;;0.00;0.00;;;18.90;99.90;;;;;;5011795;28;20117;-73
2022/09/07 04:32:48;;;;;;;0.05;0.05;;;18.90;99.90;;;;;;5007299;28;20057;-73
2022/09/07 04:35:14;;;;;;;0.00;0.00;;;18.90;99.90;;;;;;4991940;28;20046;-74
2022/09/07 04:37:39;;;;;;;0.00;0.00;;;18.90;99.90;;;;;;4993272;28;20042;-74
2022/09/07 04:40:05;;;;;;;0.00;0.00;;;18.90;99.90;;;;;;5000716;28;20109;-73
2022/09/07 04:42:31;;;;;;;0.00;0.00;;;18.90;99.90;;;;;;5010271;28;20068;-74
2022/09/07 04:44:56;;;;;;;0.10;0.10;;;18.90;99.90;;;;;;5011239;28;20045;-73
2022/09/07 04:47:22;;;;;;;1.15;0.90;;;18.90;99.90;;;;;;4993341;28;20035;-73
2022/09/07 04:49:51;;;;;;;0.70;0.70;;;18.90;99.90;;;;;;4991475;28;20074;-73
2022/09/07 04:52:18;;;;;;;0.08;0.08;;;18.90;99.90;;;;;;4993383;28;20042;-73
2022/09/07 04:54:48;;;;;;;0.10;0.10;;;18.90;99.90;;;;;;4991054;28;20046;-74
2022/09/07 04:57:14;;;;;;;0.10;0.10;;;18.80;99.90;;;;;;5003446;28;20050;-73
2022/09/07 04:59:39;;;;;;;0.00;0.00;;;18.90;99.90;;;;;;5012755;28;20112;-73
2022/09/07 05:02:05;;;;;;;0.68;0.50;;;18.80;99.90;;;;;;5012106;28;20054;-73
2022/09/07 05:04:34;;;;;;;7.13;0.38;;;18.90;99.90;;;;;;4998879;28;20042;-73
2022/09/07 05:06:59;;;;;;;0.32;0.32;;;18.80;99.90;;;;;;4993021;28;20145;-73
2022/09/07 05:09:25;;;;;;;0.00;0.00;;;18.80;99.90;;;;;;4992994;28;20126;-73
2022/09/07 05:11:51;;;;;;;0.22;0.22;;;18.70;99.90;;;;;;4993073;28;20085;-73
2022/09/07 05:14:16;;;;;;;1.48;0.73;;;18.70;99.90;;;;;;4991739;28;20077;-73
2022/09/07 05:16:42;;;;;;;0.00;0.00;;;18.70;99.90;;;;;;4990677;28;20042;-73
2022/09/07 05:19:11;;;;;;;0.15;0.15;;;18.80;99.90;;;;;;4992958;28;20046;-73
2022/09/07 05:21:36;;;;;;;0.00;0.00;;;18.80;99.90;;;;;;4993767;28;20042;-73
2022/09/07 05:24:03;;;;;;;0.00;0.00;;;18.70;99.90;;;;;;4992295;28;20516;-73
2022/09/07 05:26:31;;;;;;;0.32;0.32;;;18.70;99.90;;;;;;4992490;28;20077;-73
2022/09/07 05:29:01;;;;;;;1.55;0.25;;;18.70;99.90;;;;;;5010932;28;20549;-74
2022/09/07 05:31:26;;;;;;;0.00;0.00;;;18.80;99.90;;;;;;5011753;28;20100;-74
2022/09/07 05:33:53;;;;;;;4.10;1.02;;;18.80;99.90;;;;;;4994093;28;20046;-74
2022/09/07 05:36:20;;;;;;;0.00;0.00;;;18.80;99.90;;;;;;4990743;28;20417;-74
2022/09/07 05:38:46;;;;;;;0.00;0.00;;;18.70;99.90;;;;;;4991353;28;20542;-73
2022/09/07 05:41:13;;;;;;;0.30;0.30;;;18.80;99.90;;;;;;4998516;28;20121;-74
2022/09/07 05:43:40;;;;;;;0.00;0.00;;;18.80;99.90;;;;;;4991326;28;20054;-74
2022/09/07 05:46:06;;;;;;;0.00;0.00;;;18.80;99.90;;;;;;4988811;28;20406;-74
2022/09/07 05:48:31;;;;;;;0.55;0.55;;;18.80;99.90;;;;;;4991534;28;20050;-74
2022/09/07 05:50:57;;;;;;;8.10;0.32;;;18.80;99.90;;;;;;4991911;28;20105;-74
2022/09/07 05:53:22;;;;;;;0.20;0.20;;;18.80;99.90;;;;;;4997637;28;20042;-74
2022/09/07 05:55:49;;;;;;;1.55;0.20;;;18.90;99.90;;;;;;5011330;28;20092;-73
2022/09/07 05:58:16;;;;;;;0.00;0.00;;;18.80;99.90;;;;;;5011066;28;20050;-74
2022/09/07 06:00:41;;;;;;;0.20;0.20;;;18.90;99.90;;;;;;5007375;28;20061;-74
2022/09/07 06:03:07;;;;;;;0.00;0.00;;;18.80;99.90;;;;;;4992171;28;20054;-73
2022/09/07 06:05:33;;;;;;;0.10;0.10;;;18.80;99.90;;;;;;4990258;28;20046;-73
2022/09/07 06:07:58;;;;;;;0.10;0.10;;;18.90;99.90;;;;;;4990448;28;20463;-74
2022/09/07 06:10:25;;;;;;;0.00;0.00;;;18.80;99.90;;;;;;4992160;28;20046;-73
2022/09/07 06:12:50;;;;;;;0.10;0.10;;;18.90;99.90;;;;;;4991518;28;20121;-73
2022/09/07 06:15:16;;;;;;;0.13;0.13;;;18.90;99.90;;;;;;4991840;28;20553;-73
2022/09/07 06:17:42;;;;;;;0.52;0.52;;;18.90;99.90;;;;;;4990231;28;20046;-73
2022/09/07 06:20:08;;;;;;;0.00;0.00;;;18.90;99.90;;;;;;4991210;28;20045;-73
2022/09/07 06:22:35;;;;;;;0.65;0.28;;;18.90;99.90;;;;;;4991647;28;20406;-73
2022/09/07 06:25:01;;;;;;;0.10;0.10;;;18.90;99.90;;;;;;4989434;28;20129;-73
2022/09/07 06:27:27;;;;;;;0.05;0.05;;;18.90;99.90;;;;;;4991221;28;20129;-73
2022/09/07 06:29:53;;;;;;;0.38;0.30;;;18.90;99.90;;;;;;4991562;28;20038;-73
2022/09/07 06:32:18;;;;;;;0.00;0.00;;;18.90;99.90;;;;;;5000426;28;20073;-74
2022/09/07 06:34:44;;;;;;;0.10;0.10;;;19.00;99.90;;;;;;5006797;28;20218;-74
2022/09/07 06:37:10;;;;;;;0.05;0.05;;;19.00;99.90;;;;;;5007807;28;20053;-73
2022/09/07 06:39:36;;;;;;;0.70;0.70;;;19.00;99.90;;;;;;4996347;28;20045;-74
2022/09/07 06:42:03;;;;;;;0.20;0.20;;;19.00;99.90;;;;;;4997447;28;20038;-74
2022/09/07 06:44:29;;;;;;;0.10;0.10;;;18.90;99.90;;;;;;4991522;28;20050;-74
2022/09/07 06:46:54;;;;;;;0.47;0.20;;;18.90;99.90;;;;;;4990287;28;20142;-75
2022/09/07 06:49:20;;;;;;;0.10;0.10;;;18.90;99.90;;;;;;4990486;28;20054;-74
2022/09/07 06:51:45;;;;;;;0.00;0.00;;;18.90;99.90;;;;;;4989698;28;20046;-74
2022/09/07 06:54:11;;;;;;;0.22;0.22;;;19.00;99.90;;;;;;4992772;28;20061;-73
2022/09/07 06:56:37;;;;;;;0.10;0.10;;;19.00;99.90;;;;;;5009462;28;20057;-74
2022/09/07 06:59:02;;;;;;;0.20;0.20;;;19.00;99.90;;;;;;5010706;28;20474;-73
2022/09/07 07:01:28;;;;;;;0.63;0.63;;;19.00;99.90;;;;;;5009902;28;20129;-74
2022/09/07 07:03:54;;;;;;;0.10;0.10;;;18.90;99.90;;;;;;5007311;28;20054;-73
2022/09/07 07:06:20;;;;;;;0.50;0.50;;;19.00;99.90;;;;;;5009403;28;20045;-74
2022/09/07 07:08:46;;;;;;;0.08;0.08;;;19.00;99.90;;;;;;5009840;28;20390;-74
2022/09/07 07:11:14;;;;;;;0.30;0.30;;;18.90;99.90;;;;;;4989928;28;20050;-74
2022/09/07 07:13:42;;;;;;;1.05;0.52;;;19.00;99.90;;;;;;4989437;28;20061;-73
2022/09/07 07:16:08;;;;;;;0.45;0.32;;;19.00;99.90;;;;;;4990126;28;20112;-74
2022/09/07 07:18:35;;;;;;;0.90;0.75;;;19.00;99.90;;;;;;4991377;28;20042;-74
2022/09/07 07:21:02;;;;;;;0.00;0.00;;;19.00;99.90;;;;;;4999371;28;20054;-73
2022/09/07 07:23:28;;;;;;;0.30;0.30;;;19.00;99.90;;;;;;5010040;28;20046;-74
2022/09/07 07:25:54;;;;;;;0.10;0.10;;;19.00;99.90;;;;;;5009380;28;20519;-73
2022/09/07 07:28:22;;;;;;;0.00;0.00;;;19.00;99.90;;;;;;5006591;28;20501;-74
2022/09/07 07:30:55;;;;;;;0.10;0.10;;;19.00;99.90;;;;;;5009807;28;20115;-74
2022/09/07 07:33:48;;;;;;;0.05;0.05;;;19.10;99.90;;;;;;5010330;28;20042;-74
2022/09/07 07:36:20;;;;;;;0.55;0.50;;;19.10;99.90;;;;;;4990095;28;20129;-74
2022/09/07 07:38:47;;;;;;;0.00;0.00;;;19.00;99.90;;;;;;4988541;28;20055;-74
2022/09/07 07:41:15;;;;;;;0.10;0.10;;;19.10;99.90;;;;;;4995564;28;20046;-74
2022/09/07 07:43:41;;;;;;;0.00;0.00;;;19.10;99.90;;;;;;4988939;28;20065;-74
2022/09/07 07:46:07;;;;;;;0.30;0.30;;;19.20;99.90;;;;;;4989529;28;20057;-74
2022/09/07 07:48:34;;;;;;;0.00;0.00;;;19.30;99.90;;;;;;4989174;28;20046;-74
2022/09/07 07:51:02;;;;;;;0.38;0.25;;;19.50;99.90;;;;;;4989752;28;20042;-74
2022/09/07 07:53:30;;;;;;;1.27;0.90;;;19.50;99.90;;;;;;4990759;28;20061;-74
2022/09/07 07:56:00;;;;;;;0.38;0.38;;;19.50;99.90;;;;;;4989287;28;20049;-74
2022/09/07 07:58:30;;;;;;;0.85;0.80;;;19.60;99.90;;;;;;4988724;28;20463;-74
2022/09/07 08:01:05;;;;;;;0.17;0.15;;;19.50;99.90;;;;;;4990070;28;20461;-74
2022/09/07 08:03:33;;;;;;;1.08;0.57;;;19.60;99.90;;;;;;4989052;28;20482;-74
2022/09/07 08:06:10;;;;;;;0.10;0.10;;;19.70;99.90;;;;;;4989601;28;20057;-74
2022/09/07 08:08:36;;;;;;;0.63;0.63;;;19.70;99.90;;;;;;4989084;28;20050;-73
2022/09/07 08:11:11;;;;;;;2.50;0.80;;;19.80;99.90;;;;;;4988363;28;20055;-74
2022/09/07 08:13:39;;;;;;;0.00;0.00;;;19.80;99.90;;;;;;4989582;28;20058;-73
2022/09/07 08:16:06;;;;;;;0.00;0.00;;;19.70;99.90;;;;;;4988923;28;20073;-73
2022/09/07 08:18:33;;;;;;;0.47;0.40;;;19.70;99.90;;;;;;4989116;28;20050;-73
2022/09/07 08:21:08;;;;;;;0.30;0.30;;;19.80;99.90;;;;;;4987998;28;20130;-73
2022/09/07 08:23:34;;;;;;;0.32;0.32;;;19.80;99.90;;;;;;4988074;28;20121;-74
2022/09/07 08:26:00;;;;;;;0.00;0.00;;;19.90;99.90;;;;;;4991553;28;20141;-74
2022/09/07 08:28:27;;;;;;;0.03;0.03;;;20.00;99.90;;;;;;5000320;28;20046;-74
2022/09/07 08:30:53;;;;;;;0.17;0.17;;;20.00;99.90;;;;;;5013528;28;20038;-74
2022/09/07 08:33:20;;;;;;;0.20;0.20;;;20.00;99.90;;;;;;5010400;28;20481;-74
2022/09/07 08:36:00;;;;;;;0.22;0.22;;;20.10;99.90;;;;;;5013461;28;20048;-75
2022/09/07 08:38:27;;;;;;;0.10;0.10;;;20.30;99.90;;;;;;5011673;28;20053;-74
2022/09/07 08:40:53;;;;;;;0.30;0.30;;;20.30;99.90;;;;;;4998844;28;20043;-75
2022/09/07 08:43:53;;;;;;;0.75;0.75;;;20.30;99.90;;;;;;4993288;28;20046;-75
2022/09/07 08:46:42;;;;;;;0.75;0.35;;;20.40;99.90;;;;;;4990899;28;20058;-75
2022/09/07 08:49:18;;;;;;;0.30;0.30;;;20.60;99.90;;;;;;4972341;28;20367;-75
2022/09/07 08:51:54;;;;;;;0.20;0.20;;;20.60;99.90;;;;;;4993297;28;20070;-75
2022/09/07 08:54:19;;;;;;;0.10;0.10;;;20.70;99.90;;;;;;4990852;28;20415;-75
2022/09/07 08:56:49;;;;;;;0.20;0.20;;;20.80;99.90;;;;;;4993627;28;20054;-75
2022/09/07 08:59:24;;;;;;;0.20;0.20;;;21.00;99.90;;;;;;4992369;28;20152;-75
2022/09/07 09:01:50;;;;;;;0.10;0.10;;;21.00;99.90;;;;;;4993013;28;20061;-75
2022/09/07 09:04:21;;;;;;;0.10;0.10;;;20.90;99.90;;;;;;4993522;28;20042;-75
2022/09/07 09:07:06;;;;;;;0.30;0.30;;;20.90;99.90;;;;;;4993440;28;20491;-74
2022/09/07 09:09:57;;;;;;;0.32;0.32;;;20.90;99.90;;;;;;4991391;28;20066;-75
2022/09/07 09:12:39;;;;;;;0.00;0.00;;;20.90;99.90;;;;;;4992721;28;20054;-75
2022/09/07 09:15:25;;;;;;;0.55;0.35;;;21.50;99.90;;;;;;4989916;28;20042;-73
2022/09/07 09:18:38;;;;;;;0.00;0.00;;;21.90;99.90;;;;;;5002403;28;20722;-75
2022/09/07 09:21:06;;;;;;;1.25;0.65;;;22.00;99.90;;;;;;4996234;28;20401;-75
2022/09/07 09:23:40;;;;;;;0.40;0.40;;;22.50;99.90;;;;;;5012068;28;20058;-75
2022/09/07 09:26:17;;;;;;;0.88;0.30;;;22.90;99.90;;;;;;4994632;28;20125;-74
2022/09/07 09:28:42;;;;;;;0.10;0.10;;;23.40;99.90;;;;;;4998269;28;20558;-75
2022/09/07 09:31:24;;;;;;;0.00;0.00;;;23.80;99.90;;;;;;5010492;28;20129;-75
2022/09/07 09:34:10;;;;;;;0.00;0.00;;;24.30;99.90;;;;;;5010496;28;20046;-75
2022/09/07 09:36:48;;;;;;;0.00;0.00;;;23.90;99.90;;;;;;5009502;28;20161;-75
2022/09/07 09:39:28;;;;;;;0.80;0.40;;;24.10;99.90;;;;;;5001580;28;20391;-75
2022/09/07 09:42:11;;;;;;;0.32;0.32;;;24.10;99.90;;;;;;4998237;28;20112;-75
2022/09/07 09:44:38;;;;;;;0.00;0.00;;;24.50;99.90;;;;;;4991619;28;20042;-75
2022/09/07 09:47:05;;;;;;;0.00;0.00;;;24.60;99.90;;;;;;4992446;28;20042;-76
2022/09/07 09:49:36;;;;;;;0.10;0.10;;;25.20;99.90;;;;;;4992828;28;20065;-75
2022/09/07 09:52:04;;;;;;;0.00;0.00;;;25.60;99.90;;;;;;4989979;28;20061;-75
2022/09/07 09:54:36;;;;;;;0.00;0.00;;;25.60;99.90;;;;;;4992522;28;20066;-75
2022/09/07 09:57:02;;;;;;;0.55;0.25;;;25.80;99.90;;;;;;5004375;28;20711;-75
2022/09/07 09:59:30;;;;;;;0.25;0.22;;;26.20;99.90;;;;;;5011143;28;20100;-75
2022/09/07 10:01:57;;;;;;;0.00;0.00;;;26.20;99.90;;;;;;5002533;28;20466;-75
2022/09/07 10:04:29;;;;;;;0.20;0.13;;;26.40;99.90;;;;;;4991517;28;20414;-76
2022/09/07 10:07:20;;;;;;;0.00;0.00;;;26.60;99.90;;;;;;4992122;28;20050;-75
2022/09/07 10:09:51;;;;;;;0.52;0.52;;;26.60;99.90;;;;;;4989810;28;20057;-74
2022/09/07 10:12:35;;;;;;;0.10;0.10;;;26.60;99.90;;;;;;4990815;28;20046;-75
2022/09/07 10:15:04;;;;;;;0.30;0.15;;;26.60;99.90;;;;;;4991194;28;20073;-74
2022/09/07 10:17:31;;;;;;;0.00;0.00;;;26.40;99.90;;;;;;5009708;28;20137;-75
2022/09/07 10:20:15;;;;;;;0.45;0.20;;;26.30;99.90;;;;;;5010676;28;20049;-75
2022/09/07 10:22:50;;;;;;;0.00;0.00;;;26.00;99.90;;;;;;5009949;28;20045;-74
2022/09/07 10:25:39;;;;;;;0.00;0.00;;;26.00;99.90;;;;;;5010486;28;20104;-75
2022/09/07 10:28:14;;;;;;;0.00;0.00;;;25.90;99.90;;;;;;5001321;28;20042;-74
2022/09/07 10:31:10;;;;;;;0.00;0.00;;;25.90;99.90;;;;;;4991489;28;20058;-75
2022/09/07 10:34:03;;;;;;;0.00;0.00;;;25.70;99.90;;;;;;5009095;28;20498;-76
2022/09/07 10:36:54;;;;;;;0.00;0.00;;;25.30;99.90;;;;;;5011490;28;20057;-75
2022/09/07 10:39:26;;;;;;;0.08;0.08;;;25.30;99.90;;;;;;5009796;28;20054;-75
2022/09/07 10:42:19;;;;;;;0.00;0.00;;;25.40;99.90;;;;;;5008216;28;20501;-75
2022/09/07 10:45:08;;;;;;;0.00;0.00;;;25.60;99.90;;;;;;5009456;28;20050;-76
2022/09/07 10:47:54;;;;;;;0.17;0.17;;;25.30;99.90;;;;;;5010304;28;20046;-76
2022/09/07 10:50:49;;;;;;;0.00;0.00;;;25.50;99.90;;;;;;4999123;28;20042;-76
2022/09/07 10:53:49;;;;;;;0.00;0.00;;;25.50;99.90;;;;;;4990865;28;20495;-76
2022/09/07 10:56:34;;;;;;;0.00;0.00;;;25.50;99.90;;;;;;4989653;28;20486;-76
2022/09/07 10:59:30;;;;;;;0.00;0.00;;;25.70;99.90;;;;;;4992673;28;20119;-76
2022/09/07 11:02:22;;;;;;;0.10;0.10;;;25.80;99.90;;;;;;5008036;28;20449;-75
2022/09/07 11:04:50;;;;;;;0.00;0.00;;;25.80;99.90;;;;;;5005303;28;20137;-76
2022/09/07 11:07:28;;;;;;;0.00;0.00;;;25.50;99.90;;;;;;4996417;28;20081;-76
2022/09/07 11:10:01;;;;;;;0.00;0.00;;;25.20;99.90;;;;;;5008795;28;20049;-76
2022/09/07 11:12:28;;;;;;;;;;;25.00;99.90;;;;;;5006613;28;20046;-75
2022/09/07 11:15:29;;;;;;;0.00;0.00;;;24.90;99.90;;;;;;4989853;28;20013;-75
2022/09/07 11:18:04;;;;;;;0.00;0.00;;;24.90;99.90;;;;;;4979224;28;20062;-75
2022/09/07 11:20:36;;;;;;;0.00;0.00;;;24.60;99.90;;;;;;4992183;28;20068;-74
2022/09/07 11:23:36;;;;;;;0.00;0.00;;;24.60;99.90;;;;;;4990165;28;20121;-75
2022/09/07 11:26:23;;;;;;;0.05;0.05;;;24.90;99.90;;;;;;4989599;28;20061;-75
2022/09/07 11:28:53;;;;;;;0.10;0.10;;;25.30;99.90;;;;;;4987245;28;20047;-76
2022/09/07 11:31:21;;;;;;;0.00;0.00;;;25.40;99.90;;;;;;4991567;28;20400;-75
2022/09/07 11:33:53;;;;;;;0.00;0.00;;;25.20;99.90;;;;;;5010667;28;20129;-75
2022/09/07 11:36:19;;;;;;;0.00;0.00;;;25.20;99.90;;;;;;5009265;28;20129;-75
2022/09/07 11:38:59;;;;;;;0.00;0.00;;;25.20;99.90;;;;;;5005682;28;20125;-75
2022/09/07 11:41:39;;;;;;;0.00;0.00;;;25.30;99.90;;;;;;5008997;28;20042;-76
2022/09/07 11:44:22;;;;;;;0.10;0.10;;;25.90;99.90;;;;;;5005989;28;20173;-75
2022/09/07 11:46:56;;;;;;;0.13;0.13;;;26.00;99.90;;;;;;5007792;28;20129;-75
2022/09/07 11:49:25;;;;;;;0.00;0.00;;;26.20;99.90;;;;;;4991186;28;20633;-75
2022/09/07 11:51:55;;;;;;;0.00;0.00;;;26.50;99.90;;;;;;4990397;28;20042;-76
2022/09/07 11:54:27;;;;;;;0.00;0.00;;;26.70;99.80;;;;;;4991192;28;20398;-75
2022/09/07 11:57:13;;;;;;;0.00;0.00;;;26.10;99.20;;;;;;4989839;28;20557;-75
2022/09/07 12:00:18;;;;;;;0.10;0.10;;;25.80;99.90;;;;;;4981713;28;20118;-75
2022/09/07 12:03:22;;;;;;;0.00;0.00;;;26.00;99.90;;;;;;4975142;28;20530;-75
2022/09/07 12:06:12;;;;;;;0.00;0.00;;;26.10;99.90;;;;;;4992921;28;20066;-76
2022/09/07 12:09:39;;;;;;;0.43;0.43;;;26.40;99.90;;;;;;5008944;28;20097;-75
2022/09/07 12:12:17;;;;;;;0.00;0.00;;;26.40;99.90;;;;;;4988661;28;20043;-75
2022/09/07 12:15:01;;;;;;;0.00;0.00;;;25.80;99.90;;;;;;4991968;28;20053;-75
2022/09/07 12:17:51;;;;;;;0.00;0.00;;;25.60;99.90;;;;;;5004694;28;20053;-75
2022/09/07 12:20:26;;;;;;;0.00;0.00;;;26.30;99.90;;;;;;5010166;28;20092;-75
2022/09/07 12:22:55;;;;;;;0.00;0.00;;;26.70;99.90;;;;;;4992320;28;20501;-75
2022/09/07 12:25:21;;;;;;;0.10;0.10;;;27.00;99.90;;;;;;4992241;28;20105;-76
2022/09/07 12:27:46;;;;;;;0.00;0.00;;;26.60;99.50;;;;;;4992740;28;20046;-76
2022/09/07 12:30:12;;;;;;;0.00;0.00;;;27.20;99.90;;;;;;4992171;28;20133;-76
2022/09/07 12:32:46;;;;;;;0.00;0.00;;;27.40;98.70;;;;;;4998119;28;20137;-76
2022/09/07 12:35:27;;;;;;;0.00;0.00;;;27.50;99.30;;;;;;4992973;28;20056;-76
2022/09/07 12:38:15;;;;;;;0.00;0.00;;;27.40;99.90;;;;;;5011485;28;20125;-76
2022/09/07 12:41:00;;;;;;;4.13;0.17;;;27.80;99.00;;;;;;4995219;28;20073;-76
2022/09/07 12:43:52;;;;;;;0.10;0.10;;;28.00;99.20;;;;;;4993934;28;20042;-76
2022/09/07 12:46:31;;;;;;;0.00;0.00;;;28.10;98.20;;;;;;4991773;28;20050;-77
2022/09/07 12:48:56;;;;;;;0.00;0.00;;;28.30;98.90;;;;;;4995891;28;20050;-77
2022/09/07 12:51:22;;;;;;;1.48;0.52;;;28.30;98.40;;;;;;4992956;28;20064;-77
2022/09/07 12:54:06;;;;;;;0.00;0.00;;;28.10;97.90;;;;;;4992918;28;20053;-76
2022/09/07 12:57:01;;;;;;;0.00;0.00;;;27.40;98.80;;;;;;4995471;28;20201;-76
2022/09/07 12:59:53;;;;;;;0.15;0.15;;;27.60;98.40;;;;;;4993353;28;20066;-76
2022/09/07 13:02:56;;;;;;;0.00;0.00;;;28.10;99.00;;;;;;4991061;28;20058;-76
2022/09/07 13:05:41;;;;;;;0.00;0.00;;;28.30;98.50;;;;;;4991505;28;20050;-76
2022/09/07 13:08:36;;;;;;;0.22;0.22;;;28.60;98.40;;;;;;4990091;28;20081;-76
2022/09/07 13:11:38;;;;;;;0.08;0.08;;;29.00;98.40;;;;;;5011199;28;20404;-77
2022/09/07 13:14:14;;;;;;;0.10;0.10;;;29.00;97.20;;;;;;4981025;28;20455;-77
2022/09/07 13:16:43;;;;;;;0.15;0.15;;;29.00;97.40;;;;;;4992950;28;20442;-76
2022/09/07 13:19:14;;;;;;;0.00;0.00;;;29.10;96.80;;;;;;4992922;28;20046;-76